Time;durP1;ratioP1;P1;durP2;ratioP2;P2;SDS_P1;SDS_P2;PMS_P1;PMS_P2;Temp;Humidity;BMP_temperature;BMP_pressure;BME280_temperature;BME280_humidity;BME280_pressure;Samples;Min_cycle;Max_cycle;Signal;HPM_P1;HPM_P2
2023/01/07 00:01:13;;;;;;;;;3.67;3.67;;;;;12.64;100.00;101418.34;5078856;28;46119;-78
2023/01/07 00:03:39;;;;;;;;;4.00;4.00;;;;;12.67;100.00;101423.34;5079196;28;45462;-79
2023/01/07 00:06:10;;;;;;;;;6.00;5.67;;;;;12.65;100.00;101425.34;5065977;27;45349;-79
2023/01/07 00:08:38;;;;;;;;;5.33;5.00;;;;;12.59;100.00;101410.84;5090766;27;45299;-78
2023/01/07 00:11:06;;;;;;;;;4.00;4.00;;;;;12.66;100.00;101412.84;5082090;28;48362;-78
2023/01/07 00:13:33;;;;;;;;;4.33;4.33;;;;;12.67;100.00;101411.81;5082416;28;45347;-78
2023/01/07 00:16:08;;;;;;;;;5.00;5.00;;;;;12.56;100.00;101389.88;5082452;28;45434;-78
2023/01/07 00:18:35;;;;;;;;;5.67;5.67;;;;;12.65;100.00;101401.34;5063982;28;46542;-78
2023/01/07 00:21:03;;;;;;;;;4.00;4.00;;;;;12.53;100.00;101382.22;5081761;28;45699;-78
2023/01/07 00:23:30;;;;;;;;;4.33;4.33;;;;;12.52;100.00;101377.88;5063931;28;45870;-78
2023/01/07 00:26:01;;;;;;;;;4.33;4.33;;;;;12.63;100.00;101390.00;5082527;28;45545;-78
2023/01/07 00:28:26;;;;;;;;;5.33;5.33;;;;;12.63;100.00;101388.16;5081977;28;45306;-78
2023/01/07 00:30:57;;;;;;;;;5.33;4.33;;;;;12.58;100.00;101371.03;5063661;28;47173;-78
2023/01/07 00:33:27;;;;;;;;;3.33;3.33;;;;;12.61;100.00;101376.03;5063664;28;45379;-78
2023/01/07 00:36:01;;;;;;;;;5.00;5.00;;;;;12.58;100.00;101366.53;5063991;28;45414;-78
2023/01/07 00:38:27;;;;;;;;;5.33;4.67;;;;;12.56;100.00;101359.69;5081791;28;45284;-78
2023/01/07 00:40:53;;;;;;;;;4.00;4.00;;;;;12.58;100.00;101360.38;5081816;28;45338;-78
2023/01/07 00:43:18;;;;;;;;;4.33;4.33;;;;;12.58;100.00;101355.03;5081604;28;45256;-78
2023/01/07 00:45:43;;;;;;;;;4.00;4.00;;;;;12.60;100.00;101351.19;5063975;28;45338;-78
2023/01/07 00:48:09;;;;;;;;;4.67;4.00;;;;;12.59;100.00;101346.03;5081701;28;45170;-78
2023/01/07 00:50:36;;;;;;;;;3.00;3.00;;;;;12.56;100.00;101341.03;5063461;28;48223;-78
2023/01/07 00:53:02;;;;;;;;;3.00;3.00;;;;;12.57;100.00;101342.72;5063276;28;45783;-78
2023/01/07 00:55:28;;;;;;;;;4.00;3.67;;;;;12.57;100.00;101337.38;5082017;28;45331;-78
2023/01/07 00:57:54;;;;;;;;;3.00;2.67;;;;;12.55;100.00;101326.03;5081625;28;45343;-78
2023/01/07 01:00:22;;;;;;;;;5.33;5.33;;;;;12.58;100.00;101318.53;5081656;28;45402;-78
2023/01/07 01:02:49;;;;;;;;;5.00;4.00;;;;;12.53;100.00;101314.72;5081622;28;45321;-78
2023/01/07 01:05:14;;;;;;;;;4.00;4.00;;;;;12.57;100.00;101316.03;5081547;28;45240;-78
2023/01/07 01:07:40;;;;;;;;;5.33;4.67;;;;;12.52;100.00;101313.06;5094496;27;45575;-78
2023/01/07 01:10:09;;;;;;;;;4.00;4.00;;;;;12.50;100.00;101303.41;5063217;28;47750;-77
2023/01/07 01:12:35;;;;;;;;;5.67;5.67;;;;;12.55;100.00;101302.03;5081084;28;45364;-78
2023/01/07 01:15:02;;;;;;;;;8.00;6.00;;;;;12.52;100.00;101299.72;5063140;28;45516;-78
2023/01/07 01:17:27;;;;;;;;;6.00;6.00;;;;;12.49;100.00;101295.59;5080351;28;45572;-77
2023/01/07 01:19:53;;;;;;;;;4.67;4.67;;;;;12.42;100.00;101284.75;5081043;28;46302;-78
2023/01/07 01:22:18;;;;;;;;;7.67;6.00;;;;;12.37;100.00;101271.13;5081352;28;45269;-78
2023/01/07 01:24:43;;;;;;;;;5.00;5.00;;;;;12.42;100.00;101282.09;5081532;28;45278;-79
2023/01/07 01:27:09;;;;;;;;;5.00;5.00;;;;;12.45;100.00;101289.75;5081513;28;45445;-78
2023/01/07 01:29:34;;;;;;;;;7.67;6.33;;;;;12.40;100.00;101283.28;5081082;28;45365;-78
2023/01/07 01:32:00;;;;;;;;;6.00;6.00;;;;;12.36;100.00;101285.44;5062689;28;45179;-78
2023/01/07 01:34:25;;;;;;;;;4.00;4.00;;;;;12.41;100.00;101275.13;5081121;28;45377;-78
2023/01/07 01:36:51;;;;;;;;;6.00;6.00;;;;;12.40;100.00;101283.28;5081144;28;45348;-78
2023/01/07 01:39:16;;;;;;;;;6.00;4.33;;;;;12.27;100.00;101255.34;5081044;28;45994;-78
2023/01/07 01:41:42;;;;;;;;;4.00;4.00;;;;;12.45;100.00;101280.94;5062495;28;45775;-78
2023/01/07 01:44:26;;;;;;;;;5.00;5.00;;;;;12.47;100.00;101277.09;5062798;28;45388;-78
2023/01/07 01:46:52;;;;;;;;;4.67;4.00;;;;;12.41;100.00;101260.94;5062391;28;46919;-78
2023/01/07 01:49:25;;;;;;;;;4.00;4.00;;;;;12.47;100.00;101265.59;5080552;28;46286;-78
2023/01/07 01:52:12;;;;;;;;;5.00;4.67;;;;;12.50;100.00;101271.41;5062303;28;45981;-78
2023/01/07 01:54:40;;;;;;;;;6.33;6.00;;;;;12.39;100.00;101250.44;5080624;28;45330;-78
2023/01/07 01:57:08;;;;;;;;;4.67;4.33;;;;;12.48;100.00;101268.06;5062612;28;46287;-78
2023/01/07 01:59:38;;;;;;;;;5.00;4.00;;;;;12.49;100.00;101263.59;5062063;28;45389;-78
2023/01/07 02:02:05;;;;;;;;;4.33;4.33;;;;;12.50;100.00;101262.56;5080723;28;45385;-78
2023/01/07 02:04:32;;;;;;;;;4.00;4.00;;;;;12.50;100.00;101263.41;5062153;28;45268;-78
2023/01/07 02:07:13;;;;;;;;;5.00;5.00;;;;;12.55;100.00;101254.06;5090839;27;45407;-78
2023/01/07 02:09:39;;;;;;;;;4.00;4.00;;;;;12.46;100.00;101247.94;5080839;27;46103;-78
2023/01/07 02:12:31;;;;;;;;;3.33;3.33;;;;;12.48;100.00;101252.09;5080447;28;45296;-78
2023/01/07 02:15:20;;;;;;;;;6.00;4.67;;;;;12.40;100.00;101236.13;5069694;28;45442;-78
2023/01/07 02:18:21;;;;;;;;;3.67;3.67;;;;;12.45;100.00;101243.63;5080253;28;45371;-77
2023/01/07 02:21:12;;;;;;;;;3.00;3.00;;;;;12.40;100.00;101232.63;5061617;28;48594;-77
2023/01/07 02:24:21;;;;;;;;;6.67;3.00;;;;;12.44;100.00;101237.44;5080494;28;45221;-78
2023/01/07 02:27:07;;;;;;;;;2.33;2.33;;;;;12.43;100.00;101233.13;4988737;28;45385;-78
2023/01/07 02:30:06;;;;;;;;;4.00;4.00;;;;;12.41;100.00;101226.28;5069721;28;45359;-78
2023/01/07 02:32:50;;;;;;;;;3.00;3.00;;;;;12.40;100.00;101222.81;5048796;28;48688;-78
2023/01/07 02:35:43;;;;;;;;;3.67;3.67;;;;;12.39;100.00;101212.31;5079694;28;45345;-78
2023/01/07 02:38:20;;;;;;;;;4.00;2.00;;;;;12.40;100.00;101212.16;5062066;28;45810;-78
2023/01/07 02:41:27;;;;;;;;;4.33;4.33;;;;;12.40;100.00;101216.63;5068404;28;45336;-77
2023/01/07 02:44:20;;;;;;;;;4.33;4.00;;;;;12.38;100.00;101211.47;5066830;28;45280;-78
2023/01/07 02:47:22;;;;;;;;;3.00;3.00;;;;;12.35;100.00;101212.66;5079899;28;45237;-78
2023/01/07 02:49:48;;;;;;;;;3.00;2.33;;;;;12.36;100.00;101202.81;5065834;28;45348;-78
2023/01/07 02:52:26;;;;;;;;;2.67;2.67;;;;;12.32;100.00;101199.69;5079850;28;45384;-78
2023/01/07 02:55:03;;;;;;;;;2.67;2.67;;;;;12.37;100.00;101207.16;5061433;28;48581;-78
2023/01/07 02:58:00;;;;;;;;;3.00;3.00;;;;;12.35;100.00;101203.84;5079714;28;45249;-78
2023/01/07 03:00:40;;;;;;;;;5.00;3.00;;;;;12.36;100.00;101193.00;5069571;28;45425;-78
2023/01/07 03:03:13;;;;;;;;;3.00;3.00;;;;;12.38;100.00;101190.16;5079623;28;45297;-78
2023/01/07 03:06:23;;;;;;;;;3.00;3.00;;;;;12.36;100.00;101197.50;5079527;28;45477;-78
2023/01/07 03:09:07;;;;;;;;;2.00;2.00;;;;;12.29;100.00;101172.53;5053143;28;45707;-78
2023/01/07 03:11:43;;;;;;;;;3.00;3.00;;;;;12.30;100.00;101174.22;5049233;28;45431;-78
2023/01/07 03:14:41;;;;;;;;;6.33;5.00;;;;;12.08;100.00;101136.69;5079602;28;45263;-78
2023/01/07 03:17:11;;;;;;;;;2.67;2.67;;;;;12.39;100.00;101169.69;5020930;28;46456;-78
2023/01/07 03:19:43;;;;;;;;;4.00;4.00;;;;;12.29;100.00;101153.88;5079232;28;45235;-78
2023/01/07 03:22:09;;;;;;;;;5.00;4.00;;;;;12.32;100.00;101158.88;5079762;28;45529;-78
2023/01/07 03:24:35;;;;;;;;;5.67;4.33;;;;;12.34;100.00;101157.72;5079476;28;45367;-78
2023/01/07 03:27:05;;;;;;;;;4.00;4.00;;;;;12.36;100.00;101162.84;5079320;28;46080;-78
2023/01/07 03:29:31;;;;;;;;;4.00;4.00;;;;;12.36;100.00;101158.34;5061286;28;45600;-78
2023/01/07 03:32:08;;;;;;;;;6.67;4.00;;;;;12.37;100.00;101145.88;5079143;28;45380;-78
2023/01/07 03:34:35;;;;;;;;;4.00;4.00;;;;;12.36;100.00;101141.50;5079044;28;45390;-78
2023/01/07 03:37:12;;;;;;;;;3.33;3.33;;;;;12.31;100.00;101123.41;5060867;28;47355;-78
2023/01/07 03:39:40;;;;;;;;;3.33;3.33;;;;;12.33;100.00;101125.91;5060504;28;45273;-77
2023/01/07 03:44:51;;;;;;;;;3.00;3.00;;;;;12.39;100.00;101124.38;5078684;28;45377;-78
2023/01/07 03:47:17;;;;;;;;;4.00;4.00;;;;;12.32;100.00;101126.88;5079027;28;45344;-78
2023/01/07 03:49:42;;;;;;;;;5.33;4.67;;;;;12.30;100.00;101118.25;5060395;28;45451;-78
2023/01/07 03:52:08;;;;;;;;;4.67;3.67;;;;;12.27;100.00;101114.09;5079189;28;45396;-78
2023/01/07 03:54:33;;;;;;;;;4.67;4.33;;;;;12.27;100.00;101119.41;5060758;28;46153;-78
2023/01/07 03:56:58;;;;;;;;;4.67;4.67;;;;;12.29;100.00;101124.56;5078936;28;45318;-78
2023/01/07 03:59:24;;;;;;;;;2.33;2.33;;;;;12.23;100.00;101097.63;5060620;28;45351;-78
2023/01/07 04:01:49;;;;;;;;;4.00;4.00;;;;;12.29;100.00;101106.75;5079195;28;45356;-78
2023/01/07 04:04:14;;;;;;;;;6.67;4.00;;;;;12.22;100.00;101092.47;5060187;28;45978;-78
2023/01/07 04:06:40;;;;;;;;;4.00;4.00;;;;;12.28;100.00;101091.78;5087389;27;46402;-78
2023/01/07 04:09:05;;;;;;;;;4.00;4.00;;;;;12.29;100.00;101098.75;5083914;27;45273;-78
2023/01/07 04:11:30;;;;;;;;;3.67;3.67;;;;;12.30;100.00;101094.28;5079151;28;45449;-78
2023/01/07 04:13:59;;;;;;;;;5.00;4.00;;;;;12.24;100.00;101082.47;5078617;28;45511;-78
2023/01/07 04:16:25;;;;;;;;;5.00;5.00;;;;;12.29;100.00;101081.94;5060190;28;47088;-78
2023/01/07 04:18:50;;;;;;;;;5.00;5.00;;;;;12.25;100.00;101079.63;5078681;28;45281;-78
2023/01/07 04:21:15;;;;;;;;;4.67;4.67;;;;;12.18;100.00;101057.34;5078852;28;45261;-78
2023/01/07 04:23:41;;;;;;;;;5.00;4.67;;;;;12.19;100.00;101064.38;5078658;28;45410;-78
2023/01/07 04:26:06;;;;;;;;;4.67;4.67;;;;;12.21;100.00;101057.00;5078722;28;45418;-78
2023/01/07 04:28:31;;;;;;;;;5.00;5.00;;;;;12.15;100.00;101047.06;5078403;28;45371;-78
2023/01/07 04:30:59;;;;;;;;;5.67;5.00;;;;;12.18;100.00;101052.03;5078999;28;45394;-78
2023/01/07 04:33:25;;;;;;;;;4.67;4.00;;;;;12.18;100.00;101035.22;5078126;28;45481;-78
2023/01/07 04:35:50;;;;;;;;;6.33;5.00;;;;;12.17;100.00;101039.72;5078529;28;46183;-78
2023/01/07 04:38:16;;;;;;;;;4.67;4.67;;;;;12.16;100.00;101031.91;5078553;28;45227;-78
2023/01/07 04:40:41;;;;;;;;;6.00;4.67;;;;;12.08;100.00;101016.78;5078623;28;45429;-78
2023/01/07 04:43:08;;;;;;;;;4.00;4.00;;;;;12.16;100.00;101030.06;5078237;28;45493;-78
2023/01/07 04:45:33;;;;;;;;;5.67;5.67;;;;;12.13;100.00;101019.78;5060076;28;47338;-78
2023/01/07 04:47:59;;;;;;;;;4.00;4.00;;;;;12.14;100.00;101023.25;5060207;28;45515;-78
2023/01/07 04:50:24;;;;;;;;;5.00;5.00;;;;;12.05;100.00;101003.81;5078081;28;45273;-78
2023/01/07 04:52:50;;;;;;;;;6.00;4.00;;;;;12.02;100.00;101004.16;5079892;28;45335;-78
2023/01/07 04:55:15;;;;;;;;;5.67;5.00;;;;;11.92;100.00;100993.75;5081806;28;45429;-78
2023/01/07 04:57:41;;;;;;;;;4.67;4.67;;;;;11.80;100.00;100986.16;5063196;28;45336;-78
2023/01/07 05:00:07;;;;;;;;;4.33;4.33;;;;;11.78;100.00;100980.19;5081617;28;45398;-78
2023/01/07 05:02:33;;;;;;;;;4.33;4.33;;;;;11.69;100.00;100984.72;5081410;28;45308;-78
2023/01/07 05:04:58;;;;;;;;;5.00;5.00;;;;;11.58;100.00;100971.78;5081204;28;46175;-78
2023/01/07 05:07:24;;;;;;;;;4.67;4.67;;;;;11.53;100.00;100971.50;5094839;27;45409;-77
2023/01/07 05:09:49;;;;;;;;;3.33;3.33;;;;;11.44;100.00;100965.41;5081766;28;45320;-78
2023/01/07 05:12:14;;;;;;;;;4.67;4.67;;;;;11.36;100.00;100972.44;5063082;28;45569;-78
2023/01/07 05:14:40;;;;;;;;;5.00;5.00;;;;;11.29;100.00;100965.31;5081532;28;45446;-78
2023/01/07 05:17:05;;;;;;;;;5.33;4.33;;;;;11.17;100.00;100957.72;5081412;28;45329;-78
2023/01/07 05:19:30;;;;;;;;;5.33;5.33;;;;;11.14;100.00;100946.59;5063227;28;45353;-78
2023/01/07 05:21:56;;;;;;;;;5.00;5.00;;;;;11.04;100.00;100938.81;5062930;28;47117;-77
2023/01/07 05:24:21;;;;;;;;;5.00;4.67;;;;;10.98;100.00;100958.94;5067843;28;45331;-78
2023/01/07 05:26:46;;;;;;;;;6.00;4.00;;;;;10.85;100.00;100938.22;5081278;28;45345;-77
2023/01/07 05:29:12;;;;;;;;;5.67;5.00;;;;;10.85;100.00;100954.16;5081221;28;45646;-78
2023/01/07 05:31:37;;;;;;;;;6.00;5.00;;;;;10.72;100.00;100934.25;5081180;28;45306;-78
2023/01/07 05:34:02;;;;;;;;;6.00;6.00;;;;;10.74;100.00;100960.66;5081031;28;46296;-78
2023/01/07 05:36:28;;;;;;;;;4.00;4.00;;;;;10.64;100.00;100928.13;5081318;28;45541;-77
2023/01/07 05:38:53;;;;;;;;;5.00;5.00;;;;;10.66;100.00;100944.75;5081091;28;45281;-78
2023/01/07 05:41:18;;;;;;;;;7.00;5.00;;;;;10.58;100.00;100930.47;5081203;28;45542;-78
2023/01/07 05:43:44;;;;;;;;;3.33;3.33;;;;;10.64;100.00;100925.47;5080885;28;45995;-77
2023/01/07 05:46:09;;;;;;;;;4.33;4.00;;;;;10.54;100.00;100923.81;5081011;28;45326;-76
2023/01/07 05:48:34;;;;;;;;;2.67;2.67;;;;;10.45;100.00;100909.72;5062742;28;45351;-75
2023/01/07 05:51:00;;;;;;;;;3.33;3.00;;;;;10.43;100.00;100916.19;5062563;28;47418;-76
2023/01/07 05:53:25;;;;;;;;;5.33;3.33;;;;;10.41;100.00;100911.03;5080772;28;46023;-79
2023/01/07 05:55:56;;;;;;;;;5.33;5.33;;;;;10.06;100.00;100867.94;5081038;28;45433;-79
2023/01/07 05:58:21;;;;;;;;;5.00;5.00;;;;;10.30;100.00;100909.56;5068373;28;45229;-79
2023/01/07 06:00:46;;;;;;;;;3.00;3.00;;;;;10.37;100.00;100933.63;5080394;28;45481;-79
2023/01/07 06:03:11;;;;;;;;;4.00;4.00;;;;;10.31;100.00;100924.50;5080935;28;46241;-78
2023/01/07 06:05:37;;;;;;;;;4.00;4.00;;;;;10.19;100.00;100908.09;5061956;28;45320;-79
2023/01/07 06:08:02;;;;;;;;;5.00;5.00;;;;;10.24;100.00;100920.88;5093936;27;45434;-79
2023/01/07 06:10:28;;;;;;;;;3.67;3.67;;;;;10.21;100.00;100914.06;5062637;28;47388;-79
2023/01/07 06:12:53;;;;;;;;;3.33;3.33;;;;;10.19;100.00;100901.94;5080940;28;46281;-80
2023/01/07 06:15:18;;;;;;;;;3.00;3.00;;;;;10.07;100.00;100896.13;5081204;28;45503;-79
2023/01/07 06:17:44;;;;;;;;;3.00;3.00;;;;;9.89;100.00;100865.28;5063415;28;45299;-79
2023/01/07 06:20:10;;;;;;;;;3.00;3.00;;;;;10.09;100.00;100902.94;5080718;28;45771;-78
2023/01/07 06:22:35;;;;;;;;;3.67;3.33;;;;;10.05;100.00;100901.63;5080179;28;46447;-79
2023/01/07 06:25:01;;;;;;;;;3.00;3.00;;;;;9.99;100.00;100889.00;5062685;28;45220;-78
2023/01/07 06:27:27;;;;;;;;;3.00;3.00;;;;;9.98;100.00;100885.53;5062359;28;45404;-79
2023/01/07 06:29:52;;;;;;;;;3.67;3.67;;;;;9.99;100.00;100904.94;5081015;28;45706;-80
2023/01/07 06:32:17;;;;;;;;;3.00;3.00;;;;;9.91;100.00;100891.69;5080819;28;45291;-79
2023/01/07 06:34:43;;;;;;;;;4.00;4.00;;;;;9.95;100.00;100899.16;5080644;28;45335;-79
2023/01/07 06:37:08;;;;;;;;;5.67;5.67;;;;;9.92;100.00;100907.44;5062612;28;45388;-79
2023/01/07 06:39:33;;;;;;;;;3.00;3.00;;;;;9.87;100.00;100907.09;5080545;28;45346;-79
2023/01/07 06:41:59;;;;;;;;;3.67;3.67;;;;;9.88;100.00;100906.13;5079895;28;46188;-79
2023/01/07 06:44:24;;;;;;;;;4.33;4.33;;;;;9.79;100.00;100888.53;5079926;28;45387;-79
2023/01/07 06:46:49;;;;;;;;;4.00;3.00;;;;;9.78;100.00;100900.13;5071616;28;45428;-76
2023/01/07 06:49:14;;;;;;;;;3.00;3.00;;;;;9.80;100.00;100909.59;5072584;28;45667;-77
2023/01/07 06:51:40;;;;;;;;;3.00;3.00;;;;;9.81;100.00;100913.91;5071218;28;47031;-76
2023/01/07 06:54:05;;;;;;;;;1.67;1.67;;;;;9.73;100.00;100897.97;5080081;28;45328;-76
2023/01/07 06:56:31;;;;;;;;;3.67;3.67;;;;;9.72;100.00;100897.13;5061675;28;45676;-76
2023/01/07 06:58:56;;;;;;;;;6.00;5.00;;;;;9.68;100.00;100897.63;5060829;28;45940;-79
2023/01/07 07:01:21;;;;;;;;;3.67;3.67;;;;;9.66;100.00;100896.94;5079259;28;45402;-79
2023/01/07 07:03:47;;;;;;;;;6.67;5.33;;;;;9.64;100.00;100891.81;5080070;28;45433;-79
2023/01/07 07:06:12;;;;;;;;;6.00;6.00;;;;;9.56;100.00;100881.19;5079615;27;45333;-79
2023/01/07 07:08:37;;;;;;;;;6.00;5.00;;;;;9.55;100.00;100893.63;5079920;28;45380;-78
2023/01/07 07:11:03;;;;;;;;;7.67;7.00;;;;;9.50;100.00;100885.34;5079565;28;46215;-77
2023/01/07 07:13:28;;;;;;;;;6.00;6.00;;;;;9.45;100.00;100887.63;5061321;28;45403;-78
2023/01/07 07:15:53;;;;;;;;;5.00;5.00;;;;;9.41;100.00;100886.31;5078820;28;45393;-78
2023/01/07 07:18:19;;;;;;;;;4.00;4.00;;;;;9.26;100.00;100868.38;5079616;28;45224;-75
2023/01/07 07:20:45;;;;;;;;;4.00;4.00;;;;;9.32;100.00;100882.81;5079043;28;46276;-78
2023/01/07 07:23:11;;;;;;;;;3.33;3.33;;;;;9.22;100.00;100870.53;5079700;28;45576;-79
2023/01/07 07:25:36;;;;;;;;;5.00;4.67;;;;;9.22;100.00;100870.53;5079265;28;45398;-76
2023/01/07 07:28:01;;;;;;;;;5.00;5.00;;;;;9.18;100.00;100871.00;5079368;28;45515;-78
2023/01/07 07:30:27;;;;;;;;;4.67;4.67;;;;;9.21;100.00;100871.50;5079293;28;46318;-76
2023/01/07 07:32:52;;;;;;;;;26.67;24.67;;;;;9.17;100.00;100869.34;5061061;28;45408;-76
2023/01/07 07:35:17;;;;;;;;;8.33;8.33;;;;;9.01;100.00;100848.94;5079157;28;45394;-77
2023/01/07 07:37:43;;;;;;;;;3.00;3.00;;;;;9.12;100.00;100856.56;5079182;28;45368;-76
2023/01/07 07:40:09;;;;;;;;;5.67;4.67;;;;;9.00;100.00;100850.75;5060641;28;46179;-77
2023/01/07 07:42:36;;;;;;;;;4.00;4.00;;;;;9.06;100.00;100857.22;5079235;28;45413;-76
2023/01/07 07:45:01;;;;;;;;;5.00;5.00;;;;;9.04;100.00;100870.63;5078926;28;45386;-76
2023/01/07 07:47:26;;;;;;;;;5.00;4.00;;;;;8.91;100.00;100839.28;5079297;28;45277;-76
2023/01/07 07:49:52;;;;;;;;;4.00;4.00;;;;;8.95;100.00;100840.63;5060502;28;46042;-75
2023/01/07 07:52:17;;;;;;;;;4.00;4.00;;;;;9.04;100.00;100849.41;5068550;27;45442;-75
2023/01/07 07:54:43;;;;;;;;;6.00;6.00;;;;;9.04;100.00;100856.56;5074236;27;45271;-76
2023/01/07 07:57:08;;;;;;;;;4.00;4.00;;;;;8.98;100.00;100847.41;5079218;28;45284;-75
2023/01/07 07:59:34;;;;;;;;;4.00;4.00;;;;;8.96;100.00;100850.25;5072931;28;45319;-75
2023/01/07 08:01:59;;;;;;;;;4.67;4.67;;;;;8.99;100.00;100859.69;5078937;28;45281;-75
2023/01/07 08:04:27;;;;;;;;;4.67;4.67;;;;;9.04;100.00;100857.38;5078821;28;45281;-75
2023/01/07 08:06:53;;;;;;;;;4.33;4.33;;;;;8.99;100.00;100849.09;5079404;27;45290;-75
2023/01/07 08:09:18;;;;;;;;;4.33;4.33;;;;;9.01;100.00;100838.31;5078565;28;45997;-75
2023/01/07 08:11:44;;;;;;;;;8.00;7.67;;;;;9.09;100.00;100847.13;5078921;28;45284;-75
2023/01/07 08:14:09;;;;;;;;;5.33;5.33;;;;;9.03;100.00;100838.97;5078165;27;45597;-76
2023/01/07 08:16:34;;;;;;;;;9.00;8.33;;;;;9.02;100.00;100832.03;5074529;28;45471;-75
2023/01/07 08:19:00;;;;;;;;;8.00;5.67;;;;;8.99;100.00;100829.69;5071513;28;46077;-76
2023/01/07 08:21:25;;;;;;;;;5.00;5.00;;;;;8.96;100.00;100826.38;5078507;28;45427;-76
2023/01/07 08:23:50;;;;;;;;;6.00;4.33;;;;;8.98;100.00;100828.03;5078965;28;45447;-75
2023/01/07 08:26:16;;;;;;;;;5.67;5.67;;;;;9.02;100.00;100835.50;5079272;28;45549;-76
2023/01/07 08:28:41;;;;;;;;;5.33;5.33;;;;;9.04;100.00;100838.00;5058294;28;47113;-75
2023/01/07 08:31:07;;;;;;;;;7.33;6.67;;;;;9.05;100.00;100839.66;5079042;28;45310;-76
2023/01/07 08:33:36;;;;;;;;;8.67;7.00;;;;;9.05;100.00;100837.00;5064107;28;45360;-76
2023/01/07 08:36:03;;;;;;;;;6.67;5.33;;;;;9.07;100.00;100829.72;5081664;28;45469;-75
2023/01/07 08:38:30;;;;;;;;;7.00;7.00;;;;;9.14;100.00;100843.16;5081960;28;45334;-76
2023/01/07 08:40:55;;;;;;;;;6.33;6.33;;;;;9.10;100.00;100824.09;5063455;28;45301;-76
2023/01/07 08:43:22;;;;;;;;;8.00;7.00;;;;;9.12;100.00;100822.09;5063734;28;45482;-76
2023/01/07 08:45:48;;;;;;;;;6.33;6.00;;;;;9.27;100.00;100838.22;5081765;28;45524;-75
2023/01/07 08:48:14;;;;;;;;;5.33;5.33;;;;;9.27;100.00;100824.09;5081495;28;46181;-76
2023/01/07 08:50:39;;;;;;;;;4.67;4.67;;;;;9.30;100.00;100829.94;5081523;28;45341;-76
2023/01/07 08:53:04;;;;;;;;;3.00;3.00;;;;;9.38;100.00;100822.97;5082273;28;45247;-75
2023/01/07 08:55:30;;;;;;;;;5.00;5.00;;;;;9.37;100.00;100803.56;5063196;28;47197;-76
2023/01/07 08:57:55;;;;;;;;;6.00;6.00;;;;;9.45;100.00;100808.06;5081577;28;47368;-75
2023/01/07 09:00:21;;;;;;;;;6.00;5.67;;;;;9.49;100.00;100796.13;5081333;28;45267;-77
2023/01/07 09:02:47;;;;;;;;;7.33;7.33;;;;;9.50;100.00;100794.28;5068214;28;45396;-77
2023/01/07 09:05:12;;;;;;;;;6.00;5.00;;;;;9.50;100.00;100784.50;5061406;28;47175;-77
2023/01/07 09:07:38;;;;;;;;;9.33;7.00;;;;;9.56;100.00;100780.38;5086900;27;45386;-78
2023/01/07 09:10:04;;;;;;;;;3.67;3.67;;;;;9.60;100.00;100774.56;5064114;28;45418;-77
2023/01/07 09:12:29;;;;;;;;;6.00;6.00;;;;;9.68;100.00;100771.06;5077284;28;45587;-76
2023/01/07 09:14:54;;;;;;;;;5.67;5.00;;;;;9.76;100.00;100769.41;5081397;28;45503;-76
2023/01/07 09:17:20;;;;;;;;;6.00;6.00;;;;;9.76;100.00;100758.78;5082921;28;45299;-79
2023/01/07 09:19:45;;;;;;;;;5.33;5.33;;;;;9.79;100.00;100761.09;5062848;28;46163;-79
2023/01/07 09:22:10;;;;;;;;;7.33;6.67;;;;;9.81;100.00;100736.03;5080635;28;45328;-79
2023/01/07 09:24:36;;;;;;;;;8.67;7.33;;;;;9.91;100.00;100733.19;5063127;28;46502;-79
2023/01/07 09:27:01;;;;;;;;;9.33;9.00;;;;;10.02;100.00;100733.81;5081278;28;45475;-79
2023/01/07 09:29:26;;;;;;;;;8.00;7.67;;;;;10.03;100.00;100735.50;5062919;28;45293;-79
2023/01/07 09:31:52;;;;;;;;;8.00;6.67;;;;;10.05;100.00;100729.00;5062335;28;45233;-80
2023/01/07 09:34:17;;;;;;;;;6.00;5.33;;;;;10.07;100.00;100728.84;5080211;27;45470;-81
2023/01/07 09:36:42;;;;;;;;;3.33;3.00;;;;;10.12;100.00;100720.38;5069241;28;45578;-81
2023/01/07 09:39:10;;;;;;;;;5.00;4.67;;;;;10.14;100.00;100711.22;5080787;28;45315;-83
2023/01/07 09:41:44;;;;;;;;;7.67;5.00;;;;;10.27;100.00;100726.63;5081056;28;45351;-82
2023/01/07 09:44:38;;;;;;;;;7.67;6.00;;;;;10.30;100.00;100714.81;5062628;28;45941;-79
2023/01/07 09:47:06;;;;;;;;;7.00;6.33;;;;;10.21;100.00;100693.59;5081230;28;45296;-79
2023/01/07 09:49:32;;;;;;;;;5.00;5.00;;;;;10.31;100.00;100692.56;5062764;28;45421;-78
2023/01/07 09:52:06;;;;;;;;;6.00;5.00;;;;;10.41;100.00;100698.47;5062504;28;45398;-79
2023/01/07 09:54:38;;;;;;;;;5.00;5.00;;;;;10.51;100.00;100694.81;5081665;28;45315;-78
2023/01/07 09:57:04;;;;;;;;;4.00;4.00;;;;;10.48;100.00;100678.22;5080683;28;46380;-79
2023/01/07 09:59:30;;;;;;;;;5.00;5.00;;;;;10.51;100.00;100673.56;5080358;28;45157;-79
2023/01/07 10:02:17;;;;;;;;;7.00;4.33;;;;;10.60;100.00;100686.59;5076189;28;45345;-77
2023/01/07 10:05:07;;;;;;;;;5.00;5.00;;;;;10.53;100.00;100661.75;5077412;28;45529;-77
2023/01/07 10:07:42;;;;;;;;;3.33;3.00;;;;;10.64;100.00;100673.81;5057444;28;47571;-78
2023/01/07 10:10:22;;;;;;;;;8.00;7.00;;;;;10.72;100.00;100683.56;5062352;28;45235;-78
2023/01/07 10:13:11;;;;;;;;;4.67;4.67;;;;;10.71;100.00;100676.56;5062329;28;45443;-77
2023/01/07 10:15:48;;;;;;;;;5.33;5.33;;;;;10.82;100.00;100676.19;5061804;28;46458;-78
2023/01/07 10:18:22;;;;;;;;;6.00;4.00;;;;;10.89;100.00;100680.78;5080314;28;46583;-78
2023/01/07 10:21:14;;;;;;;;;7.33;6.33;;;;;10.96;100.00;100682.53;5079883;28;45323;-78
2023/01/07 10:23:43;;;;;;;;;6.00;6.00;;;;;11.04;100.00;100684.31;5048965;28;45571;-78
2023/01/07 10:26:21;;;;;;;;;7.00;7.00;;;;;11.10;100.00;100682.75;5078158;28;45384;-77
2023/01/07 10:28:53;;;;;;;;;7.33;6.00;;;;;11.06;100.00;100665.50;5061499;28;47587;-78
2023/01/07 10:31:22;;;;;;;;;7.00;5.67;;;;;11.13;100.00;100657.66;5080074;28;45157;-78
2023/01/07 10:33:50;;;;;;;;;5.00;5.00;;;;;11.27;100.00;100667.50;5062070;28;45374;-77
2023/01/07 10:36:24;;;;;;;;;5.67;5.00;;;;;11.33;100.00;100658.78;5061950;28;47165;-79
2023/01/07 10:39:02;;;;;;;;;9.00;7.33;;;;;11.40;100.00;100656.22;5056329;28;47105;-78
2023/01/07 10:41:56;;;;;;;;;8.00;6.00;;;;;11.45;100.00;100653.84;5080070;28;45256;-78
2023/01/07 10:44:24;;;;;;;;;5.33;5.33;;;;;11.52;100.00;100645.16;5079237;27;45241;-78
2023/01/07 10:47:21;;;;;;;;;8.33;6.67;;;;;11.59;100.00;100641.53;5079728;28;45457;-78
2023/01/07 10:50:37;;;;;;;;;6.00;6.00;;;;;11.65;100.00;100621.38;5076168;28;46150;-78
2023/01/07 10:53:21;;;;;;;;;6.00;6.00;;;;;11.70;100.00;100626.16;5029397;28;45400;-78
2023/01/07 10:56:05;;;;;;;;;4.00;4.00;;;;;11.73;100.00;100607.94;5061797;28;45367;-78
2023/01/07 10:58:41;;;;;;;;;5.00;5.00;;;;;11.72;100.00;100584.19;5079888;28;45436;-78
2023/01/07 11:01:19;;;;;;;;;6.67;6.67;;;;;11.80;100.00;100586.75;5079567;28;45466;-76
2023/01/07 11:03:49;;;;;;;;;6.00;5.00;;;;;11.87;100.00;100586.81;5079571;28;45331;-76
2023/01/07 11:06:18;;;;;;;;;7.67;7.67;;;;;11.89;100.00;100583.97;5061301;28;45393;-78
2023/01/07 11:08:43;;;;;;;;;6.00;6.00;;;;;11.91;100.00;100574.78;5075107;28;45539;-78
2023/01/07 11:11:20;;;;;;;;;4.00;4.00;;;;;11.99;100.00;100580.00;5079426;28;45424;-78
2023/01/07 11:13:56;;;;;;;;;6.33;6.33;;;;;11.98;100.00;100567.69;5079464;28;45486;-78
2023/01/07 11:16:27;;;;;;;;;5.00;5.00;;;;;11.96;100.00;100572.38;5079732;28;46323;-79
2023/01/07 11:18:59;;;;;;;;;8.00;6.33;;;;;12.14;100.00;100587.16;5060940;28;46884;-77
2023/01/07 11:21:47;;;;;;;;;5.00;5.00;;;;;12.11;100.00;100564.38;5079246;28;46477;-78
2023/01/07 11:24:31;;;;;;;;;4.33;4.00;;;;;12.14;100.00;100546.34;5060968;28;45355;-77
2023/01/07 11:27:14;;;;;;;;;4.67;4.67;;;;;12.19;100.00;100558.13;5079618;28;45416;-77
2023/01/07 11:29:54;;;;;;;;;4.00;4.00;;;;;12.26;100.00;100560.84;5079450;28;45210;-78
2023/01/07 11:32:27;;;;;;;;;4.00;4.00;;;;;12.27;100.00;100540.34;5079208;28;45506;-76
2023/01/07 11:35:00;;;;;;;;;4.67;4.67;;;;;12.29;100.00;100527.66;5079192;28;45382;-77